Time;durP1;ratioP1;P1;durP2;ratioP2;P2;SDS_P1;SDS_P2;PMS_P1;PMS_P2;Temp;Humidity;BMP_temperature;BMP_pressure;BME280_temperature;BME280_humidity;BME280_pressure;Samples;Min_cycle;Max_cycle;Signal;HPM_P1;HPM_P2
2021/08/25 00:01:38;;;;;;;4.95;1.70;;;;;;;13.10;100.00;102399.91;6224716;28;20050;-78
2021/08/25 00:04:41;;;;;;;3.17;1.63;;;;;;;13.06;100.00;102404.44;6224956;28;20049;-78
2021/08/25 00:07:44;;;;;;;2.88;1.50;;;;;;;13.03;100.00;102401.91;6224012;28;20049;-78
2021/08/25 00:10:45;;;;;;;2.65;1.42;;;;;;;12.99;100.00;102399.44;6225011;28;20068;-78
2021/08/25 00:13:47;;;;;;;3.03;1.63;;;;;;;12.95;100.00;102398.72;6224474;28;20501;-78
2021/08/25 00:16:48;;;;;;;3.75;1.67;;;;;;;12.97;100.00;102394.22;6224475;28;20042;-78
2021/08/25 00:19:49;;;;;;;3.35;1.65;;;;;;;12.94;100.00;102396.97;6224319;28;20417;-78
2021/08/25 00:22:52;;;;;;;4.13;2.03;;;;;;;12.90;100.00;102388.31;6224335;28;20061;-78
2021/08/25 00:25:54;;;;;;;6.75;1.83;;;;;;;12.82;100.00;102390.38;6224277;28;20076;-78
2021/08/25 00:28:55;;;;;;;1.70;1.23;;;;;;;12.80;100.00;102383.41;6224228;28;20497;-78
2021/08/25 00:31:57;;;;;;;3.13;1.55;;;;;;;12.82;100.00;102385.09;6224381;28;20050;-79
2021/08/25 00:34:58;;;;;;;2.50;1.10;;;;;;;12.79;100.00;102379.94;6223808;28;20053;-78
2021/08/25 00:38:01;;;;;;;3.80;1.88;;;;;;;12.74;100.00;102373.97;6223892;28;20523;-78
2021/08/25 00:41:03;;;;;;;2.47;1.10;;;;;;;12.71;100.00;102371.44;6223865;28;20053;-79
2021/08/25 00:44:05;;;;;;;4.53;1.48;;;;;;;12.68;100.00;102368.91;6223569;28;20053;-79
2021/08/25 00:47:06;;;;;;;2.40;1.27;;;;;;;12.65;100.00;102367.25;6224452;28;20053;-78
2021/08/25 00:50:10;;;;;;;2.17;1.45;;;;;;;12.61;100.00;102376.19;6223537;28;20050;-79
2021/08/25 00:53:13;;;;;;;5.53;1.42;;;;;;;12.57;100.00;102373.69;6223313;28;20543;-78
2021/08/25 00:56:14;;;;;;;4.95;2.10;;;;;;;12.53;100.00;102372.09;6223579;28;20046;-79
2021/08/25 00:59:17;;;;;;;3.17;1.20;;;;;;;12.52;100.00;102362.47;6244388;22;20050;-77
2021/08/25 01:02:26;;;;;;;3.95;1.38;;;;;;;12.43;100.00;102359.22;6217412;28;20582;-77
2021/08/25 01:05:30;;;;;;;2.40;1.50;;;;;;;12.47;100.00;102356.50;6218258;28;20047;-77
2021/08/25 01:08:33;;;;;;;2.10;1.13;;;;;;;12.43;100.00;102353.94;6213252;28;20052;-77
2021/08/25 01:11:35;;;;;;;2.65;1.33;;;;;;;12.44;100.00;102349.53;6214396;28;20057;-77
2021/08/25 01:14:38;;;;;;;7.57;1.70;;;;;;;12.41;100.00;102349.66;6221944;28;20542;-77
2021/08/25 01:17:40;;;;;;;2.58;1.08;;;;;;;12.35;100.00;102349.84;6222424;28;20050;-77
2021/08/25 01:20:42;;;;;;;2.50;1.58;;;;;;;12.34;100.00;102346.38;6217833;28;20046;-77
2021/08/25 01:23:46;;;;;;;3.20;1.20;;;;;;;12.31;100.00;102340.34;6213956;28;20507;-77
2021/08/25 01:26:52;;;;;;;1.50;1.20;;;;;;;12.29;100.00;102337.75;6222140;28;20057;-75
2021/08/25 01:29:55;;;;;;;4.72;1.33;;;;;;;12.27;100.00;102339.59;6221936;28;20053;-75
2021/08/25 01:32:59;;;;;;;1.90;1.15;;;;;;;12.21;100.00;102334.53;6222115;28;20056;-77
2021/08/25 01:36:00;;;;;;;4.82;1.27;;;;;;;12.15;100.00;102334.75;6221982;28;20050;-77
2021/08/25 01:39:02;;;;;;;3.65;1.38;;;;;;;12.13;100.00;102336.59;6222024;28;20046;-77
2021/08/25 01:42:04;;;;;;;3.78;1.30;;;;;;;12.12;100.00;102332.22;6218951;28;20054;-77
2021/08/25 01:45:07;;;;;;;2.33;1.08;;;;;;;12.04;100.00;102327.22;6212930;28;20042;-77
2021/08/25 01:48:09;;;;;;;2.67;1.20;;;;;;;12.05;100.00;102328.06;6221971;28;20061;-75
2021/08/25 01:51:10;;;;;;;3.42;1.50;;;;;;;11.99;100.00;102325.63;6221772;28;20077;-75
2021/08/25 01:54:12;;;;;;;3.83;1.17;;;;;;;12.00;100.00;102325.59;6221862;28;20497;-75
2021/08/25 01:57:14;;;;;;;3.53;1.45;;;;;;;12.01;100.00;102321.19;6221496;28;20144;-75
2021/08/25 02:00:17;;;;;;;3.45;1.23;;;;;;;11.99;100.00;102309.81;6221942;28;20049;-77
2021/08/25 02:03:18;;;;;;;2.53;1.20;;;;;;;11.97;100.00;102312.53;6221792;28;20176;-77
2021/08/25 02:06:20;;;;;;;2.55;1.20;;;;;;;11.95;100.00;102305.59;6221699;28;20046;-75
2021/08/25 02:09:22;;;;;;;2.83;1.00;;;;;;;11.89;100.00;102304.88;6221663;28;20050;-77
2021/08/25 02:12:23;;;;;;;3.88;0.98;;;;;;;11.88;100.00;102307.56;6221724;28;20072;-77
2021/08/25 02:15:26;;;;;;;2.53;0.98;;;;;;;11.86;100.00;102301.50;6221413;28;20053;-75
2021/08/25 02:18:27;;;;;;;3.10;1.13;;;;;;;11.81;100.00;102303.38;6221359;28;20417;-75
2021/08/25 02:21:29;;;;;;;1.55;1.05;;;;;;;11.78;100.00;102303.50;6221695;28;20046;-78
2021/08/25 02:24:30;;;;;;;2.25;0.98;;;;;;;11.74;100.00;102297.47;6221015;28;20082;-77
2021/08/25 02:27:31;;;;;;;1.27;1.02;;;;;;;11.73;100.00;102292.25;6221472;28;20050;-77
2021/08/25 02:30:34;;;;;;;2.28;1.17;;;;;;;11.71;100.00;102294.91;6222973;28;20046;-77
2021/08/25 02:33:36;;;;;;;2.78;1.38;;;;;;;11.68;100.00;102289.78;6225870;28;20045;-77
2021/08/25 02:36:37;;;;;;;2.70;1.63;;;;;;;11.63;100.00;102287.28;6200172;28;20442;-77
2021/08/25 02:39:38;;;;;;;2.47;1.20;;;;;;;11.60;100.00;102283.88;6189861;28;20409;-77
2021/08/25 02:42:40;;;;;;;2.88;1.20;;;;;;;11.57;100.00;102274.31;6187860;28;20054;-75
2021/08/25 02:45:43;;;;;;;2.38;1.00;;;;;;;11.55;100.00;102272.66;6189088;28;20065;-77
2021/08/25 02:48:44;;;;;;;2.42;1.02;;;;;;;11.57;100.00;102262.91;6188369;28;20051;-77
2021/08/25 02:51:45;;;;;;;2.30;1.20;;;;;;;11.54;100.00;102258.63;6188741;28;20047;-77
2021/08/25 02:54:47;;;;;;;1.60;1.17;;;;;;;11.54;100.00;102252.50;6188410;28;20517;-77
2021/08/25 02:57:48;;;;;;;2.88;1.00;;;;;;;11.54;100.00;102252.50;6185359;28;20058;-77
2021/08/25 03:00:51;;;;;;;2.00;1.33;;;;;;;11.49;100.00;102239.50;6187254;28;20046;-77
2021/08/25 03:03:52;;;;;;;2.22;1.00;;;;;;;11.51;100.00;102239.44;6187070;28;20050;-76
2021/08/25 03:06:53;;;;;;;2.10;1.52;;;;;;;11.52;100.00;102246.41;6190310;28;20042;-76
2021/08/25 03:09:55;;;;;;;3.28;1.25;;;;;;;11.51;100.00;102242.94;6186086;28;20514;-77
2021/08/25 03:12:56;;;;;;;1.75;1.13;;;;;;;11.47;100.00;102235.19;6188482;28;20050;-77
2021/08/25 03:15:59;;;;;;;2.25;1.30;;;;;;;11.41;100.00;102234.47;6199509;28;20069;-76
2021/08/25 03:19:00;;;;;;;2.60;1.10;;;;;;;11.38;100.00;102221.41;6200676;28;20058;-77
2021/08/25 03:22:01;;;;;;;2.80;1.05;;;;;;;11.35;100.00;102224.13;6200579;28;20050;-76
2021/08/25 03:25:04;;;;;;;1.75;1.00;;;;;;;11.32;100.00;102218.13;6200397;28;20061;-76
2021/08/25 03:28:05;;;;;;;1.65;1.00;;;;;;;11.28;100.00;102217.38;6200278;28;20074;-77
2021/08/25 03:31:08;;;;;;;4.40;1.35;;;;;;;11.27;100.00;102212.16;6200479;28;20497;-77
2021/08/25 03:34:09;;;;;;;1.83;1.17;;;;;;;11.28;100.00;102212.09;6200098;28;20065;-76
2021/08/25 03:37:11;;;;;;;3.35;1.08;;;;;;;11.27;100.00;102215.66;6199972;28;20053;-77
2021/08/25 03:40:13;;;;;;;2.63;1.05;;;;;;;11.25;100.00;102214.81;6200241;28;20050;-76
2021/08/25 03:43:14;;;;;;;2.47;1.13;;;;;;;11.23;100.00;102211.38;6198752;28;20057;-76
2021/08/25 03:46:17;;;;;;;2.30;1.23;;;;;;;11.24;100.00;102204.34;6200010;28;20058;-76
2021/08/25 03:49:18;;;;;;;1.25;0.98;;;;;;;11.22;100.00;102212.31;6199701;28;20077;-76
2021/08/25 03:52:19;;;;;;;2.75;1.20;;;;;;;11.23;100.00;102206.13;6199989;28;20058;-76
2021/08/25 03:55:22;;;;;;;2.67;0.95;;;;;;;11.22;100.00;102207.06;6199330;28;20101;-76
2021/08/25 03:58:23;;;;;;;3.22;1.02;;;;;;;11.20;100.00;102205.38;6199665;28;20061;-76
2021/08/25 04:01:26;;;;;;;1.63;0.80;;;;;;;11.18;100.00;102194.91;6199488;28;20050;-76
2021/08/25 04:04:27;;;;;;;0.63;0.63;;;;;;;11.11;100.00;102202.13;6199466;28;20046;-76
2021/08/25 04:07:29;;;;;;;3.40;0.70;;;;;;;11.08;100.00;102196.97;6199379;28;20050;-76
2021/08/25 04:10:30;;;;;;;2.35;0.80;;;;;;;11.08;100.00;102199.59;6199730;28;20046;-75
2021/08/25 04:13:31;;;;;;;1.60;0.80;;;;;;;11.06;100.00;102198.78;6200115;28;20058;-76
2021/08/25 04:16:34;;;;;;;1.15;0.75;;;;;;;11.06;100.00;102193.50;6199735;28;20053;-76
2021/08/25 04:19:35;;;;;;;1.55;1.08;;;;;;;11.02;100.00;102185.78;6199299;28;20057;-76
2021/08/25 04:22:37;;;;;;;2.38;1.60;;;;;;;11.03;100.00;102193.59;6199027;28;20057;-76
2021/08/25 04:25:38;;;;;;;2.42;1.20;;;;;;;11.02;100.00;102189.25;6198975;28;20053;-75
2021/08/25 04:28:39;;;;;;;3.22;1.33;;;;;;;10.99;100.00;102197.25;6198802;28;20057;-75
2021/08/25 04:31:42;;;;;;;3.95;2.17;;;;;;;10.96;100.00;102194.72;6190051;28;20065;-76
2021/08/25 04:34:44;;;;;;;2.78;1.67;;;;;;;10.94;100.00;102188.63;6178567;28;20418;-76
2021/08/25 04:37:45;;;;;;;1.42;0.90;;;;;;;10.97;100.00;102188.53;6181253;28;20050;-75
2021/08/25 04:40:46;;;;;;;6.38;1.27;;;;;;;10.95;100.00;102189.53;6184601;28;20057;-76
2021/08/25 04:43:48;;;;;;;2.25;1.02;;;;;;;10.95;100.00;102185.13;6185249;28;20051;-75
2021/08/25 04:46:50;;;;;;;4.35;1.48;;;;;;;10.96;100.00;102183.34;6181651;28;20039;-76
2021/08/25 04:49:52;;;;;;;2.75;1.35;;;;;;;11.00;100.00;102182.34;6179258;28;20050;-76
2021/08/25 04:52:53;;;;;;;2.67;1.27;;;;;;;11.04;100.00;102179.56;6184414;28;20057;-76
2021/08/25 04:55:54;;;;;;;2.63;1.20;;;;;;;11.12;100.00;102180.16;6184318;28;20489;-76
2021/08/25 04:58:56;;;;;;;2.90;1.15;;;;;;;11.16;100.00;102176.50;6184663;28;20058;-76
2021/08/25 05:01:58;;;;;;;1.45;1.02;;;;;;;11.23;100.00;102174.56;6184307;28;20494;-76
2021/08/25 05:05:00;;;;;;;3.60;1.58;;;;;;;11.27;100.00;102172.69;6184068;28;20053;-76
2021/08/25 05:08:01;;;;;;;3.00;1.33;;;;;;;11.33;100.00;102167.22;6184490;28;20057;-76
2021/08/25 05:11:03;;;;;;;2.78;1.40;;;;;;;11.37;100.00;102160.94;6184496;28;20057;-75
2021/08/25 05:14:05;;;;;;;3.95;1.45;;;;;;;11.41;100.00;102168.66;6183917;28;20057;-75
2021/08/25 05:17:07;;;;;;;2.72;1.58;;;;;;;11.45;100.00;102158.03;6184578;28;20078;-76
2021/08/25 05:20:10;;;;;;;2.50;1.33;;;;;;;11.51;100.00;102163.94;6183499;28;20416;-76
2021/08/25 05:23:11;;;;;;;2.92;1.85;;;;;;;11.56;100.00;102167.28;6185358;28;20055;-76
2021/08/25 05:26:13;;;;;;;3.03;1.88;;;;;;;11.57;100.00;102157.59;6182675;28;20148;-76
2021/08/25 05:29:14;;;;;;;2.92;1.73;;;;;;;11.56;100.00;102156.75;6181215;28;20553;-76
2021/08/25 05:32:17;;;;;;;2.70;1.80;;;;;;;11.58;100.00;102154.03;6173708;28;20050;-76
2021/08/25 05:35:18;;;;;;;3.35;1.77;;;;;;;11.63;100.00;102157.41;6173719;28;20506;-76
2021/08/25 05:38:19;;;;;;;2.42;1.58;;;;;;;11.68;100.00;102156.31;6173369;28;20416;-76
2021/08/25 05:41:21;;;;;;;2.88;1.67;;;;;;;11.73;100.00;102153.53;6173545;28;20062;-76
2021/08/25 05:44:22;;;;;;;5.68;2.25;;;;;;;11.78;100.00;102145.47;6173132;28;20057;-76
2021/08/25 05:47:25;;;;;;;6.07;2.17;;;;;;;11.82;100.00;102134.78;6173595;28;20054;-75
2021/08/25 05:50:26;;;;;;;8.48;2.40;;;;;;;11.87;100.00;102140.75;6173495;28;20077;-76
2021/08/25 05:53:28;;;;;;;4.65;2.00;;;;;;;11.88;100.00;102141.59;6174441;28;20050;-76
2021/08/25 05:56:29;;;;;;;3.58;1.80;;;;;;;11.89;100.00;102138.91;6176862;28;20058;-76
2021/08/25 05:59:30;;;;;;;4.05;1.80;;;;;;;11.95;100.00;102131.72;6171187;28;20051;-76
2021/08/25 06:02:33;;;;;;;3.97;2.05;;;;;;;12.01;100.00;102131.47;6171172;28;20054;-75
2021/08/25 06:05:35;;;;;;;3.42;1.55;;;;;;;11.96;100.00;102126.38;6172198;28;20047;-76
2021/08/25 06:08:37;;;;;;;3.42;1.73;;;;;;;12.05;100.00;102131.31;6183418;28;20610;-76
2021/08/25 06:11:39;;;;;;;4.72;1.92;;;;;;;11.99;100.00;102131.56;6186736;28;20057;-76
2021/08/25 06:14:40;;;;;;;7.63;2.30;;;;;;;12.03;100.00;102127.84;6199699;28;20416;-75
2021/08/25 06:17:43;;;;;;;3.65;1.65;;;;;;;12.06;100.00;102135.66;6201799;28;20525;-75
2021/08/25 06:20:44;;;;;;;4.00;2.03;;;;;;;12.06;100.00;102137.44;6202291;28;20053;-76
2021/08/25 06:23:46;;;;;;;4.60;2.33;;;;;;;12.19;100.00;102141.34;6201763;28;20046;-76
2021/08/25 06:26:47;;;;;;;3.67;1.67;;;;;;;12.23;100.00;102131.53;6202136;28;20050;-76
2021/08/25 06:29:48;;;;;;;2.30;1.35;;;;;;;12.29;100.00;102132.16;6201839;28;20046;-76
2021/08/25 06:32:53;;;;;;;1.65;1.30;;;;;;;12.24;100.00;102130.63;6201681;28;20046;-76
2021/08/25 06:35:54;;;;;;;1.77;1.40;;;;;;;12.15;100.00;102121.28;6202063;28;20097;-77
2021/08/25 06:38:55;;;;;;;4.43;2.25;;;;;;;12.21;100.00;102130.72;6201303;28;20493;-77
2021/08/25 06:41:57;;;;;;;3.88;1.90;;;;;;;12.29;100.00;102123.38;6201680;28;20057;-76
2021/08/25 06:44:58;;;;;;;3.63;1.40;;;;;;;12.38;100.00;102134.44;6201156;28;20054;-76
2021/08/25 06:48:01;;;;;;;2.55;1.67;;;;;;;12.47;100.00;102130.59;6201371;28;20046;-76
2021/08/25 06:51:02;;;;;;;2.40;1.60;;;;;;;12.54;100.00;102126.81;6201284;28;20549;-76
2021/08/25 06:54:04;;;;;;;6.63;2.00;;;;;;;12.52;100.00;102128.63;6201075;28;20054;-76
2021/08/25 06:57:05;;;;;;;2.47;1.75;;;;;;;12.53;100.00;102129.47;6201061;28;20050;-76
2021/08/25 07:00:08;;;;;;;4.22;2.22;;;;;;;12.56;100.00;102132.84;6242552;23;20536;-78
2021/08/25 07:03:10;;;;;;;5.43;2.53;;;;;;;12.60;100.00;102125.69;6217829;28;20054;-79
2021/08/25 07:06:12;;;;;;;3.38;1.77;;;;;;;12.61;100.00;102124.75;6217239;28;20057;-78
2021/08/25 07:09:13;;;;;;;4.57;2.20;;;;;;;12.70;100.00;102121.75;6225244;28;20494;-78
2021/08/25 07:12:14;;;;;;;4.95;2.60;;;;;;;12.77;100.00;102122.38;6225654;28;20057;-78
2021/08/25 07:15:17;;;;;;;6.28;2.67;;;;;;;12.85;100.00;102115.88;6225358;28;20054;-78
2021/08/25 07:18:20;;;;;;;4.00;2.00;;;;;;;12.95;100.00;102111.09;6225012;28;20045;-78
2021/08/25 07:21:21;;;;;;;5.97;2.78;;;;;;;13.06;100.00;102102.72;6225291;28;20049;-78
2021/08/25 07:24:22;;;;;;;5.78;2.53;;;;;;;13.13;100.00;102094.47;6225402;28;20058;-79
2021/08/25 07:27:24;;;;;;;3.70;2.47;;;;;;;13.29;100.00;102105.25;6225073;28;20050;-78
2021/08/25 07:30:25;;;;;;;6.05;3.35;;;;;;;13.38;100.00;102110.13;6224466;28;20049;-78
2021/08/25 07:33:28;;;;;;;5.88;3.58;;;;;;;13.56;100.00;102100.56;6224206;28;20052;-78
2021/08/25 07:36:29;;;;;;;4.80;3.00;;;;;;;13.63;100.00;102103.81;6223982;28;20049;-79
2021/08/25 07:39:31;;;;;;;6.28;3.40;;;;;;;13.68;100.00;102100.03;6223093;28;20076;-78
2021/08/25 07:42:32;;;;;;;6.40;3.60;;;;;;;13.69;100.00;102100.88;6224154;28;20048;-79
2021/08/25 07:45:36;;;;;;;6.05;3.30;;;;;;;13.73;100.00;102102.47;6223705;28;20421;-78
2021/08/25 07:48:39;;;;;;;6.85;3.58;;;;;;;13.79;100.00;102093.41;6224321;28;20092;-78
2021/08/25 07:51:40;;;;;;;5.82;3.22;;;;;;;13.83;100.00;102084.41;6224186;28;20046;-78
2021/08/25 07:54:42;;;;;;;5.18;3.17;;;;;;;13.84;100.00;102088.75;6224321;28;20065;-78
2021/08/25 07:57:43;;;;;;;7.38;3.58;;;;;;;13.90;100.00;102083.22;6224121;28;20068;-78
2021/08/25 08:00:45;;;;;;;5.50;2.78;;;;;;;13.98;100.00;102083.69;6224568;28;20057;-78
2021/08/25 08:03:47;;;;;;;4.78;3.08;;;;;;;14.04;100.00;102077.28;6224149;28;20050;-78
2021/08/25 08:06:49;;;;;;;5.00;2.60;;;;;;;14.11;100.00;102078.69;6224548;28;20042;-78
2021/08/25 08:09:50;;;;;;;4.68;3.05;;;;;;;14.24;100.00;102068.41;6224445;28;20053;-77
2021/08/25 08:12:52;;;;;;;6.60;3.10;;;;;;;14.27;100.00;102071.78;6224393;28;20064;-78
2021/08/25 08:15:54;;;;;;;6.75;3.03;;;;;;;14.36;100.00;102070.47;6223855;28;20049;-78
2021/08/25 08:18:58;;;;;;;5.97;3.40;;;;;;;14.46;100.00;102069.94;6223689;28;20505;-79
2021/08/25 08:22:01;;;;;;;5.35;2.85;;;;;;;14.55;100.00;102059.88;6223905;28;20544;-78
2021/08/25 08:25:04;;;;;;;5.72;2.90;;;;;;;14.62;100.00;102059.50;6223772;28;20046;-79
2021/08/25 08:28:06;;;;;;;7.85;3.50;;;;;;;14.82;100.00;102052.38;6222960;28;20049;-78
2021/08/25 08:31:07;;;;;;;4.95;3.17;;;;;;;14.90;100.00;102040.47;6223028;28;20054;-80
2021/08/25 08:34:10;;;;;;;6.28;3.22;;;;;;;15.05;100.00;102040.63;6222310;28;20052;-78
2021/08/25 08:37:11;;;;;;;8.02;2.97;;;;;;;15.20;100.00;102039.81;6222442;28;20046;-79
2021/08/25 08:40:13;;;;;;;5.80;3.17;;;;;;;15.33;100.00;102030.28;6223079;28;20046;-79
2021/08/25 08:43:15;;;;;;;7.47;2.67;;;;;;;15.60;100.00;102022.66;6223287;28;20417;-79
2021/08/25 08:46:18;;;;;;;4.53;2.83;;;;;;;15.80;100.00;102026.03;6223623;28;20054;-79
2021/08/25 08:49:22;;;;;;;5.60;3.25;;;;;;;15.92;100.00;102014.78;6223300;28;20057;-79
2021/08/25 08:52:25;;;;;;;6.30;3.28;;;;;;;15.94;100.00;102013.78;6223486;28;20068;-78
2021/08/25 08:55:26;;;;;;;4.80;3.15;;;;;;;15.98;100.00;102009.13;6223017;28;20054;-79
2021/08/25 08:58:28;;;;;;;6.38;3.63;;;;;;;16.01;100.00;102006.31;6221742;28;20050;-79
2021/08/25 09:01:30;;;;;;;5.88;3.38;;;;;;;16.13;100.00;102002.97;6222685;28;20053;-79
2021/08/25 09:04:35;;;;;;;5.00;2.85;;;;;;;16.15;100.00;101993.13;6222438;28;20409;-78
2021/08/25 09:07:36;;;;;;;4.82;2.70;;;;;;;16.18;100.00;102000.06;6220241;28;20663;-79
2021/08/25 09:10:40;;;;;;;6.03;3.25;;;;;;;16.21;100.00;101991.91;6223370;28;20413;-79
2021/08/25 09:13:47;;;;;;;5.88;2.65;;;;;;;16.35;100.00;101991.13;6222192;28;20104;-78
2021/08/25 09:16:48;;;;;;;10.20;4.05;;;;;;;16.48;100.00;101992.13;6222859;28;20398;-78
2021/08/25 09:19:51;;;;;;;8.32;3.70;;;;;;;16.61;99.33;101993.13;6222945;28;20054;-79
2021/08/25 09:23:14;;;;;;;6.03;2.85;;;;;;;16.67;96.82;101987.47;6222281;28;20053;-79
2021/08/25 09:26:15;;;;;;;5.95;2.97;;;;;;;16.68;96.00;101988.31;6220641;28;20056;-79
2021/08/25 09:29:17;;;;;;;5.75;2.63;;;;;;;16.77;95.24;101971.88;6223097;28;20068;-79
2021/08/25 09:32:20;;;;;;;7.22;2.60;;;;;;;16.87;93.51;101973.03;6222698;28;20053;-78
2021/08/25 09:35:40;;;;;;;7.55;2.90;;;;;;;17.02;93.37;101962.41;6222436;28;20050;-78
2021/08/25 09:38:52;;;;;;;3.60;2.00;;;;;;;17.27;89.84;101970.59;6218096;28;20071;-79
2021/08/25 09:41:57;;;;;;;5.18;2.25;;;;;;;17.35;87.67;101956.81;6226513;28;20042;-79
2021/08/25 09:45:04;;;;;;;1.88;1.35;;;;;;;17.65;84.46;101964.66;6222876;28;20053;-79
2021/08/25 09:48:05;;;;;;;3.53;1.73;;;;;;;17.80;81.36;101953.06;6226211;28;20417;-79
2021/08/25 09:51:09;;;;;;;3.05;1.92;;;;;;;17.92;82.13;101951.44;6226352;28;20046;-80
2021/08/25 09:54:13;;;;;;;3.85;2.25;;;;;;;17.97;80.57;101944.00;6226281;28;20424;-80
2021/08/25 09:57:34;;;;;;;3.45;1.38;;;;;;;17.84;79.41;101932.47;6225981;28;20049;-79
2021/08/25 10:00:36;;;;;;;5.05;1.98;;;;;;;17.66;80.12;101945.94;6204741;28;20073;-82
2021/08/25 10:03:37;;;;;;;2.70;1.85;;;;;;;17.87;80.34;101941.09;6204020;28;20139;-80
2021/08/25 10:06:42;;;;;;;2.92;1.70;;;;;;;17.82;81.02;101937.88;6203930;28;20047;-79
2021/08/25 10:09:44;;;;;;;3.60;1.92;;;;;;;17.77;81.40;101940.00;6203751;28;20047;-79
2021/08/25 10:12:49;;;;;;;2.72;1.88;;;;;;;17.93;80.52;101937.19;6203684;28;20500;-79
2021/08/25 10:15:50;;;;;;;4.75;2.10;;;;;;;17.87;81.26;101934.94;6203028;28;20054;-80
2021/08/25 10:18:51;;;;;;;3.72;2.60;;;;;;;17.87;81.50;101924.28;6202934;28;20051;-79
2021/08/25 10:21:55;;;;;;;6.40;3.40;;;;;;;17.90;80.36;101922.28;6202601;28;20512;-79
2021/08/25 10:25:02;;;;;;;6.65;3.92;;;;;;;18.07;81.60;101905.19;6202332;28;20050;-79
2021/08/25 10:28:05;;;;;;;5.82;2.65;;;;;;;18.14;81.05;101893.22;6202568;28;20097;-79
2021/08/25 10:31:07;;;;;;;5.32;3.67;;;;;;;18.24;79.89;101885.44;6204514;28;20057;-77
2021/08/25 10:34:12;;;;;;;5.30;3.13;;;;;;;18.29;79.66;101882.47;6215850;28;20158;-79
2021/08/25 10:37:29;;;;;;;3.38;2.40;;;;;;;18.51;77.47;101869.41;6219659;28;20516;-78
2021/08/25 10:40:33;;;;;;;3.58;2.67;;;;;;;18.67;76.17;101871.88;6225232;28;20057;-76
2021/08/25 10:43:36;;;;;;;3.55;1.90;;;;;;;18.59;77.57;101858.25;6226665;28;20050;-79
2021/08/25 10:46:47;;;;;;;3.03;1.50;;;;;;;18.46;77.69;101859.09;6225298;28;20054;-78
2021/08/25 10:49:49;;;;;;;3.97;1.55;;;;;;;18.45;73.03;101862.72;6225928;28;20120;-76
2021/08/25 10:52:52;;;;;;;2.78;1.77;;;;;;;18.39;76.27;101854.28;6225898;28;20042;-78
2021/08/25 10:56:05;;;;;;;2.55;1.75;;;;;;;18.43;74.70;101838.00;6226339;28;20105;-78
2021/08/25 10:59:08;;;;;;;2.38;1.60;;;;;;;18.22;75.81;101824.38;6226981;28;20425;-78
2021/08/25 11:02:11;;;;;;;3.75;1.58;;;;;;;18.24;77.13;101821.59;6227796;28;20050;-77
2021/08/25 11:05:12;;;;;;;4.93;2.08;;;;;;;18.51;75.34;101817.03;6226402;28;20056;-78
2021/08/25 11:08:21;;;;;;;3.88;1.45;;;;;;;18.57;76.04;101807.75;6225848;28;20046;-77
2021/08/25 11:11:23;;;;;;;2.05;1.30;;;;;;;18.89;75.10;101802.84;6225560;28;20137;-77
2021/08/25 11:14:27;;;;;;;2.28;1.40;;;;;;;19.22;72.90;101788.91;6225244;28;20056;-78
2021/08/25 11:17:30;;;;;;;4.43;1.40;;;;;;;19.38;70.08;101780.63;6225804;28;20057;-78
2021/08/25 11:20:31;;;;;;;3.00;1.77;;;;;;;19.40;70.67;101775.19;6225220;28;20048;-77
2021/08/25 11:23:55;;;;;;;1.67;0.98;;;;;;;19.45;69.52;101767.69;6225160;28;20057;-78
2021/08/25 11:26:57;;;;;;;1.77;1.20;;;;;;;19.18;70.43;101758.09;6201166;28;20494;-78
2021/08/25 11:30:10;;;;;;;1.83;1.05;;;;;;;19.17;69.33;101768.91;6201155;28;20054;-78
2021/08/25 11:33:12;;;;;;;2.03;1.30;;;;;;;19.18;67.60;101766.09;6201397;28;20054;-77
2021/08/25 11:36:14;;;;;;;4.15;1.63;;;;;;;19.63;67.49;101761.03;6225061;28;20053;-78
2021/08/25 11:39:16;;;;;;;1.70;1.27;;;;;;;19.99;70.65;101759.19;6225499;28;20046;-76
2021/08/25 11:42:27;;;;;;;2.80;1.05;;;;;;;20.27;68.33;101741.88;6225321;28;20056;-78
2021/08/25 11:45:32;;;;;;;1.80;0.88;;;;;;;20.58;68.92;101729.66;6223498;28;20049;-78
2021/08/25 11:48:33;;;;;;;2.00;1.10;;;;;;;20.78;62.77;101726.22;6225469;28;20046;-78
2021/08/25 11:51:38;;;;;;;2.47;1.20;;;;;;;20.88;63.11;101722.78;6225093;28;20386;-78
2021/08/25 11:54:42;;;;;;;2.97;1.40;;;;;;;20.14;64.69;101719.78;6225076;28;20042;-78
2021/08/25 11:57:46;;;;;;;3.63;1.10;;;;;;;19.74;68.19;101715.69;6225049;28;20046;-78
2021/08/25 12:00:47;;;;;;;1.85;1.10;;;;;;;19.80;67.57;101725.03;6225910;28;20065;-78
2021/08/25 12:03:49;;;;;;;1.20;1.00;;;;;;;19.95;70.42;101718.53;6209884;28;20052;-78
2021/08/25 12:06:50;;;;;;;3.53;1.33;;;;;;;19.88;67.38;101705.78;6201402;28;20052;-78
2021/08/25 12:09:53;;;;;;;2.25;1.35;;;;;;;19.82;65.89;101714.28;6199436;28;20053;-76
2021/08/25 12:12:56;;;;;;;1.73;0.98;;;;;;;19.59;68.27;101702.66;6221268;28;20057;-79
2021/08/25 12:15:59;;;;;;;4.63;1.35;;;;;;;19.49;67.85;101707.84;6221649;28;20047;-78
2021/08/25 12:19:02;;;;;;;1.90;1.20;;;;;;;19.48;69.25;101701.69;6222207;28;20517;-77
2021/08/25 12:22:19;;;;;;;1.42;0.90;;;;;;;19.45;67.72;101696.56;6221987;28;20081;-76
2021/08/25 12:25:41;;;;;;;6.32;2.17;;;;;;;19.44;68.92;101699.31;6222206;28;20531;-78
2021/08/25 12:28:43;;;;;;;1.23;1.10;;;;;;;19.39;67.49;101685.50;6223063;28;20128;-78
2021/08/25 12:31:56;;;;;;;2.13;1.42;;;;;;;19.37;69.02;101695.44;6223726;28;20053;-78
2021/08/25 12:34:59;;;;;;;8.63;1.55;;;;;;;19.38;67.95;101681.97;6223103;28;20216;-78
2021/08/25 12:38:01;;;;;;;3.42;1.70;;;;;;;19.29;70.66;101674.69;6223436;28;20136;-78
2021/08/25 12:41:04;;;;;;;2.90;1.30;;;;;;;19.31;69.66;101670.09;6223911;28;20468;-80
2021/08/25 12:44:06;;;;;;;2.40;1.35;;;;;;;19.25;69.63;101675.88;6223984;28;20053;-79
2021/08/25 12:47:12;;;;;;;1.73;1.20;;;;;;;19.15;69.24;101672.22;6223105;28;20049;-80
2021/08/25 12:50:14;;;;;;;2.65;1.00;;;;;;;19.01;68.29;101665.25;6213870;28;20046;-81
2021/08/25 12:53:16;;;;;;;1.20;1.08;;;;;;;19.05;68.48;101658.72;6214242;28;20424;-77
2021/08/25 12:56:20;;;;;;;1.48;1.00;;;;;;;18.97;69.52;101655.78;6218738;28;20061;-80
2021/08/25 12:59:21;;;;;;;1.10;1.00;;;;;;;18.92;68.81;101650.78;6223568;28;20046;-81
2021/08/25 13:02:22;;;;;;;4.00;1.38;;;;;;;18.88;68.90;101645.81;6223255;28;20053;-81
2021/08/25 13:05:24;;;;;;;1.52;1.10;;;;;;;18.86;71.21;101647.75;6223361;28;20532;-82
2021/08/25 13:08:25;;;;;;;2.45;1.13;;;;;;;18.92;69.34;101649.94;6216725;28;20050;-81
2021/08/25 13:11:28;;;;;;;2.08;0.98;;;;;;;19.00;66.84;101656.41;6222349;28;20057;-79
2021/08/25 13:14:29;;;;;;;1.33;0.90;;;;;;;18.86;68.02;101639.75;6222982;28;20429;-79
2021/08/25 13:17:31;;;;;;;1.65;0.80;;;;;;;18.80;69.16;101635.69;6222452;28;20054;-77
2021/08/25 13:20:32;;;;;;;3.00;1.10;;;;;;;18.80;68.94;101626.88;6223111;28;20049;-77
2021/08/25 13:23:33;;;;;;;1.70;0.88;;;;;;;18.91;69.99;101621.63;6222966;28;20054;-79
2021/08/25 13:26:36;;;;;;;0.85;0.80;;;;;;;18.96;70.99;101611.47;6223255;28;20052;-79
2021/08/25 13:29:38;;;;;;;3.55;1.30;;;;;;;19.08;67.91;101607.88;6224915;28;20052;-79
2021/08/25 13:32:39;;;;;;;0.93;0.70;;;;;;;19.21;67.98;101606.00;6224117;28;20547;-77
2021/08/25 13:35:40;;;;;;;1.73;0.55;;;;;;;19.50;67.00;101595.75;6222442;28;20425;-77
2021/08/25 13:38:41;;;;;;;0.90;0.70;;;;;;;19.86;64.65;101593.88;6222484;28;20042;-78
2021/08/25 13:41:44;;;;;;;0.98;0.70;;;;;;;19.92;66.11;101588.03;6221463;28;20054;-79
2021/08/25 13:44:46;;;;;;;0.60;0.50;;;;;;;19.99;63.81;101588.41;6222863;28;20424;-75
2021/08/25 13:47:47;;;;;;;1.48;0.85;;;;;;;19.91;65.18;101578.34;6222304;28;20107;-76
2021/08/25 13:50:48;;;;;;;1.08;0.70;;;;;;;19.93;65.05;101573.72;6221410;28;20524;-77
2021/08/25 13:53:50;;;;;;;2.80;0.98;;;;;;;19.81;66.54;101569.38;6221418;28;20046;-76
2021/08/25 13:56:52;;;;;;;0.90;0.70;;;;;;;19.81;66.72;101565.88;6219432;28;20042;-76
2021/08/25 13:59:54;;;;;;;1.25;0.60;;;;;;;19.69;70.71;101567.69;6219633;28;20046;-76
2021/08/25 14:02:55;;;;;;;2.42;0.50;;;;;;;19.83;67.22;101559.44;6219521;28;20410;-75